Airfield :
LOGIN :

Register | Disclaimer

   EN    FR    IT 

 










Legend :    VFR   Marginal VFR   IFR   Intensive IFR   Very Intensive IFR
Visi :
Ceiling :
>= 8 km
>= 3000ft
5 to 8 km
1000 to 3000 ft
1500m to 5 km
500 to 1000 ft
800 to 1500m
200 to 500 ft
< 800m
< 200 ft
Symbols :   Thunderstorms  Fog  Heavy snow  Heavy precipitations  Wind > 20 kt
SIGMETs :     Misc.  Thunderstorms  Icing  Turbulence  Mountain Waves  Volcanic Ashes







- Airport Elevation : 94 ft
- IATA code : QLT


LIRL - Latina Casale (military)

CURRENT METAR :
  • 191755Z 25004KT 9999 SCT020 FEW025TCU 18/14 Q1011 RMK BKN MON INVIS VAR RAPID VIS MIN 9999 WIND THR12 27003KT WIND THR30 27003KT BLU

EXPIRED METARs :
  • 191655Z 27006KT 9999 SCT020 SCT080 20/14 Q1011
  • 191555Z 27007KT 9999 FEW020 20/13 Q1011 RMK BKN BKN180 MON LIB NC VIS MIN 9999 WIND THR12 28005KT WIND THR30 28006KT BLU

TAF TAF LIRL
Valid from the 19 at 15:00 until the 20 at 00:00 UTC


191400Z 1915/1924 27008KT 9999 SCT020
TEMPO 1921/1924 5000 RA BKN020
No reported NOTAMs for that airfield.
3 SIGMETs reported for the Roma FIR (LIRR) :
 
Severe mountain waves
LIRR SIGMET 5 VALID 191700/192000 LIIB
LIRR ROMA FIR SEV MTW FCST WI N4119 E00914 - N3830 E00906 - N3825 E01146 - N4042 E01055 - N4119 E00914 FL030/120 NC=
Severe turbulence
LIRR SIGMET 4 VALID 191700/192000 LIIB
LIRR ROMA FIR SEV TURB FCST ENTIRE FIR ABV FL160 INTSF=
Embedded thunderstorms
LIRR SIGMET 3 VALID 191600/192000 LIIB
LIRR ROMA FIR EMBD TS FCST N OF LINE N4121 E00946 - N4148 E01406 TOP ABV FL260 MOV ESE INTSF=



MET'MAP, your aeronautical weather chart ! - Copyright ORBIFLY December 2007 - Disclaimer

ORBIFLY MET'MAP TEAM :

Programming & Development : Alexandra Zaïnal
Concept & Development : Baudouin d'Aumeries
Co-Development & Prog : Marc-Olivier Méhu
Technical & hardware support : Manuel Goepfert

Contact : metmap@orbifly.com




SOURCES & CREDITS :

   NOAA